createdAt,value
2023-04-16T00:02:03.061Z,6.97
2023-04-16T00:04:30.126Z,6.97
2023-04-16T00:06:56.991Z,6.95
2023-04-16T00:09:23.936Z,6.93
2023-04-16T00:11:50.736Z,6.90
2023-04-16T00:14:17.528Z,6.88
2023-04-16T00:16:44.604Z,6.88
2023-04-16T00:19:11.666Z,6.87
2023-04-16T00:21:38.965Z,6.86
2023-04-16T00:24:05.927Z,6.86
2023-04-16T00:26:32.863Z,6.85
2023-04-16T00:28:59.758Z,6.83
2023-04-16T00:31:34.365Z,6.79
2023-04-16T00:34:04.198Z,6.79
2023-04-16T00:36:31.005Z,6.77
2023-04-16T00:38:58.032Z,6.78
2023-04-16T00:41:25.022Z,6.76
2023-04-16T00:43:51.890Z,6.74
2023-04-16T00:46:21.488Z,6.75
2023-04-16T00:48:48.935Z,6.71
2023-04-16T00:51:16.470Z,6.73
2023-04-16T00:53:44.732Z,6.71
2023-04-16T00:56:12.107Z,6.69
2023-04-16T00:58:40.091Z,6.70
2023-04-16T01:01:07.062Z,6.70
2023-04-16T01:03:44.223Z,6.65
2023-04-16T01:06:11.880Z,6.68
2023-04-16T01:08:39.087Z,6.68
2023-04-16T01:11:06.624Z,6.71
2023-04-16T01:13:35.171Z,6.71
2023-04-16T01:16:02.472Z,6.73
2023-04-16T01:18:29.506Z,6.75
2023-04-16T01:20:56.577Z,6.73
2023-04-16T01:23:23.414Z,6.72
2023-04-16T01:25:50.221Z,6.73
2023-04-16T01:28:17.356Z,6.75
2023-04-16T01:30:44.366Z,6.75
2023-04-16T01:33:21.571Z,6.75
2023-04-16T01:35:48.410Z,6.75
2023-04-16T01:38:16.592Z,6.73
2023-04-16T01:40:43.450Z,6.75
2023-04-16T01:43:10.609Z,6.77
2023-04-16T01:45:39.690Z,6.76
2023-04-16T01:48:07.846Z,6.78
2023-04-16T01:50:35.842Z,6.80
2023-04-16T01:53:05.101Z,6.80
2023-04-16T01:55:33.662Z,6.79
2023-04-16T01:58:00.525Z,6.82
2023-04-16T02:00:31.731Z,6.83
2023-04-16T02:02:59.478Z,6.83
2023-04-16T02:05:28.449Z,6.84
2023-04-16T02:07:58.096Z,6.86
2023-04-16T02:10:25.025Z,6.89
2023-04-16T02:12:52.500Z,6.92
2023-04-16T02:15:19.523Z,6.95
2023-04-16T02:17:47.975Z,6.98
2023-04-16T02:20:14.950Z,6.99
2023-04-16T02:22:48.796Z,6.95
2023-04-16T02:25:18.744Z,6.93
2023-04-16T02:27:48.269Z,6.94
2023-04-16T02:30:28.346Z,6.95
2023-04-16T02:32:55.466Z,6.93
2023-04-16T02:35:22.490Z,6.94
2023-04-16T02:37:49.780Z,6.94
2023-04-16T02:40:16.843Z,6.93
2023-04-16T02:42:43.722Z,6.96
2023-04-16T02:45:11.676Z,6.96
2023-04-16T02:47:38.583Z,6.93
2023-04-16T02:50:06.317Z,6.93
2023-04-16T02:52:33.804Z,6.96
2023-04-16T02:55:00.911Z,6.97
2023-04-16T02:57:27.787Z,7.02
2023-04-16T02:59:54.561Z,7.06
2023-04-16T03:02:21.839Z,7.09
2023-04-16T03:04:48.820Z,7.11
2023-04-16T03:07:15.989Z,7.15
2023-04-16T03:09:42.962Z,7.17
2023-04-16T03:12:09.796Z,7.22
2023-04-16T03:14:36.661Z,7.23
2023-04-16T03:17:03.501Z,7.22
2023-04-16T03:19:30.406Z,7.22
2023-04-16T03:21:57.255Z,7.23
2023-04-16T03:24:24.034Z,7.20
2023-04-16T03:26:50.914Z,7.19
2023-04-16T03:29:18.552Z,7.18
2023-04-16T03:31:45.345Z,7.20
2023-04-16T03:34:12.287Z,7.19
2023-04-16T03:36:40.790Z,7.20
2023-04-16T03:39:07.953Z,7.23
2023-04-16T03:41:36.349Z,7.23
2023-04-16T03:44:03.580Z,7.26
2023-04-16T03:46:30.557Z,7.26
2023-04-16T03:48:57.793Z,7.30
2023-04-16T03:51:27.937Z,7.30
2023-04-16T03:53:54.844Z,7.34
2023-04-16T03:56:22.038Z,7.38
2023-04-16T03:58:50.337Z,7.40
2023-04-16T04:01:17.098Z,7.41
2023-04-16T04:03:44.097Z,7.42
2023-04-16T04:06:13.286Z,7.44
2023-04-16T04:08:40.323Z,7.47
2023-04-16T04:11:07.559Z,7.52
2023-04-16T04:13:35.776Z,7.53
2023-04-16T04:16:04.135Z,7.56
2023-04-16T04:18:32.088Z,7.60
2023-04-16T04:20:59.959Z,7.64
2023-04-16T04:23:29.866Z,7.67
2023-04-16T04:25:56.909Z,7.71
2023-04-16T04:28:24.750Z,7.76
2023-04-16T04:30:51.568Z,7.78
2023-04-16T04:33:18.937Z,7.84
2023-04-16T04:35:47.439Z,7.89
2023-04-16T04:38:19.753Z,7.96
2023-04-16T04:40:47.015Z,8.04
2023-04-16T04:43:15.404Z,8.15
2023-04-16T04:45:42.466Z,8.19
2023-04-16T04:48:09.317Z,8.25
2023-04-16T04:50:36.884Z,8.27
2023-04-16T04:53:09.860Z,8.33
2023-04-16T04:55:38.528Z,8.38
2023-04-16T04:58:06.421Z,8.44
2023-04-16T05:00:34.471Z,8.48
2023-04-16T05:03:06.015Z,8.49
2023-04-16T05:05:33.399Z,8.56
2023-04-16T05:08:00.293Z,8.60
2023-04-16T05:10:27.833Z,8.68
2023-04-16T05:12:54.710Z,8.75
2023-04-16T05:15:21.631Z,8.84
2023-04-16T05:17:48.516Z,8.91
2023-04-16T05:20:16.158Z,9.01
2023-04-16T05:22:43.029Z,9.13
2023-04-16T05:25:10.161Z,9.23
2023-04-16T05:27:38.427Z,9.23
2023-04-16T05:30:06.138Z,9.30
2023-04-16T05:32:34.653Z,9.41
2023-04-16T05:35:01.785Z,9.53
2023-04-16T05:37:30.134Z,9.64
2023-04-16T05:39:56.903Z,9.69
2023-04-16T05:42:23.797Z,9.78
2023-04-16T05:44:52.449Z,9.88
2023-04-16T05:47:19.391Z,10.05
2023-04-16T05:49:46.184Z,10.21
2023-04-16T05:52:13.163Z,10.41
2023-04-16T05:54:39.910Z,10.59
2023-04-16T05:57:06.781Z,10.74
2023-04-16T05:59:34.558Z,10.84
2023-04-16T06:02:01.423Z,10.98
2023-04-16T06:04:28.445Z,11.07
2023-04-16T06:06:55.686Z,11.14
2023-04-16T06:09:22.475Z,11.19
2023-04-16T06:11:50.479Z,11.31
2023-04-16T06:14:17.609Z,11.45
2023-04-16T06:16:44.546Z,11.55
2023-04-16T06:19:11.649Z,11.69
2023-04-16T06:21:38.997Z,11.80
2023-04-16T06:24:06.251Z,11.87
2023-04-16T06:26:33.109Z,11.86
2023-04-16T06:28:59.924Z,11.83
2023-04-16T06:31:30.784Z,11.84
2023-04-16T06:33:57.926Z,11.97
2023-04-16T06:36:24.824Z,12.08
2023-04-16T06:38:51.628Z,12.08
2023-04-16T06:41:20.000Z,12.01
2023-04-16T06:43:46.859Z,11.83
2023-04-16T06:46:13.991Z,11.83
2023-04-16T06:48:41.047Z,12.01
2023-04-16T06:51:08.067Z,11.98
2023-04-16T06:53:35.007Z,11.86
2023-04-16T06:56:02.365Z,11.82
2023-04-16T06:58:29.675Z,12.05
2023-04-16T07:00:56.655Z,12.22
2023-04-16T07:03:23.763Z,12.22
2023-04-16T07:05:50.758Z,12.32
2023-04-16T07:08:17.516Z,12.41
2023-04-16T07:10:44.405Z,12.17
2023-04-16T07:13:11.358Z,12.15
2023-04-16T07:15:38.208Z,12.27
2023-04-16T07:18:05.073Z,12.14
2023-04-16T07:20:32.214Z,12.06
2023-04-16T07:22:59.584Z,12.00
2023-04-16T07:25:27.009Z,11.82
2023-04-16T07:27:53.860Z,11.73
2023-04-16T07:30:20.815Z,11.73
2023-04-16T07:32:47.767Z,11.69
2023-04-16T07:35:14.704Z,11.68
2023-04-16T07:37:41.586Z,11.67
2023-04-16T07:40:09.132Z,11.83
2023-04-16T07:42:36.344Z,12.10
2023-04-16T07:45:03.241Z,12.30
2023-04-16T07:47:31.623Z,12.43
2023-04-16T07:49:58.485Z,12.39
2023-04-16T07:52:25.502Z,12.45
2023-04-16T07:54:52.497Z,12.75
2023-04-16T07:57:19.451Z,13.09
2023-04-16T07:59:46.287Z,13.27
2023-04-16T08:02:16.713Z,13.11
2023-04-16T08:04:44.662Z,13.21
2023-04-16T08:07:11.997Z,13.50
2023-04-16T08:09:51.700Z,13.41
2023-04-16T08:12:18.814Z,13.58
2023-04-16T08:14:45.986Z,13.77
2023-04-16T08:17:13.625Z,14.07
2023-04-16T08:19:40.657Z,14.35
2023-04-16T08:22:07.582Z,14.65
2023-04-16T08:24:34.380Z,15.01
2023-04-16T08:27:11.569Z,15.29
2023-04-16T08:29:46.142Z,15.55
2023-04-16T08:32:12.998Z,15.58
2023-04-16T08:34:39.885Z,15.70
2023-04-16T08:37:06.710Z,15.68
2023-04-16T08:39:35.247Z,15.80
2023-04-16T08:42:04.822Z,15.57
2023-04-16T08:44:42.873Z,15.27
2023-04-16T08:47:13.728Z,15.00
2023-04-16T08:49:46.290Z,15.05
2023-04-16T08:52:22.412Z,15.11
2023-04-16T08:55:23.913Z,14.95
2023-04-16T08:57:59.757Z,15.34
2023-04-16T09:00:26.747Z,15.84
2023-04-16T09:02:54.426Z,16.22
2023-04-16T09:05:25.566Z,16.41
2023-04-16T09:07:54.602Z,16.04
2023-04-16T09:10:21.922Z,16.14
2023-04-16T09:12:49.123Z,16.37
2023-04-16T09:15:16.097Z,16.43
2023-04-16T09:17:43.073Z,16.59
2023-04-16T09:20:12.081Z,16.69
2023-04-16T09:22:40.535Z,16.53
2023-04-16T09:25:08.495Z,16.46
2023-04-16T09:27:36.287Z,16.37
2023-04-16T09:30:30.998Z,16.48
2023-04-16T09:33:22.573Z,16.46
2023-04-16T09:35:53.540Z,16.71
2023-04-16T09:38:21.362Z,16.68
2023-04-16T09:40:48.340Z,16.83
2023-04-16T09:43:18.406Z,16.98
2023-04-16T09:45:55.263Z,17.16
2023-04-16T09:48:32.741Z,17.31
2023-04-16T09:51:02.320Z,17.25
2023-04-16T09:53:32.576Z,17.14
2023-04-16T09:56:06.134Z,16.98
2023-04-16T09:58:36.298Z,16.90
2023-04-16T10:01:11.209Z,16.89
2023-04-16T10:03:40.698Z,16.86
2023-04-16T10:06:09.409Z,16.90
2023-04-16T10:08:36.647Z,16.96
2023-04-16T10:11:03.691Z,17.00
2023-04-16T10:13:31.969Z,17.03
2023-04-16T10:16:00.891Z,16.89
2023-04-16T10:18:29.055Z,16.70
2023-04-16T10:20:57.470Z,16.86
2023-04-16T10:23:26.433Z,17.05
2023-04-16T10:25:57.338Z,17.02
2023-04-16T10:28:29.124Z,17.04
2023-04-16T10:30:57.929Z,17.08
2023-04-16T10:33:31.328Z,17.11
2023-04-16T10:36:17.719Z,17.00
2023-04-16T10:38:54.844Z,17.07
2023-04-16T10:41:22.095Z,17.06
2023-04-16T10:43:50.348Z,17.03
2023-04-16T10:46:40.707Z,17.03
2023-04-16T10:49:23.609Z,17.17
2023-04-16T10:51:58.376Z,16.59
2023-04-16T10:54:32.581Z,16.81
2023-04-16T10:57:04.448Z,17.12
2023-04-16T10:59:34.945Z,17.29
2023-04-16T11:02:13.554Z,17.18
2023-04-16T11:04:45.151Z,17.17
2023-04-16T11:07:15.634Z,17.21
2023-04-16T11:10:06.834Z,17.07
2023-04-16T11:12:47.305Z,16.93
2023-04-16T11:15:20.492Z,16.98
2023-04-16T11:17:48.389Z,16.51
2023-04-16T11:20:22.910Z,17.22
2023-04-16T11:22:52.705Z,17.65
2023-04-16T11:25:30.304Z,17.70
2023-04-16T11:28:01.438Z,17.68
2023-04-16T11:30:36.874Z,17.51
2023-04-16T11:33:14.261Z,17.51
2023-04-16T11:35:41.753Z,17.41
2023-04-16T11:38:09.332Z,17.37
2023-04-16T11:40:36.502Z,17.31
2023-04-16T11:43:05.055Z,17.25
2023-04-16T11:45:32.105Z,17.14
2023-04-16T11:48:00.177Z,16.84
2023-04-16T11:50:28.785Z,16.49
2023-04-16T11:52:58.009Z,16.35
2023-04-16T11:55:27.595Z,16.05
2023-04-16T11:57:54.607Z,15.97
2023-04-16T12:00:24.762Z,15.96
2023-04-16T12:02:53.929Z,15.71
2023-04-16T12:05:38.824Z,15.53
2023-04-16T12:08:11.820Z,15.65
2023-04-16T12:10:56.117Z,15.61
2023-04-16T12:13:24.613Z,15.68
2023-04-16T12:15:53.773Z,15.67
2023-04-16T12:18:23.150Z,15.68
2023-04-16T12:20:53.343Z,15.44
2023-04-16T12:23:27.863Z,15.18
2023-04-16T12:25:55.228Z,15.06
2023-04-16T12:28:29.574Z,15.11
2023-04-16T12:30:57.072Z,15.32
2023-04-16T12:33:24.134Z,15.46
2023-04-16T12:35:51.131Z,15.56
2023-04-16T12:38:18.450Z,15.61
2023-04-16T12:40:46.778Z,15.62
2023-04-16T12:43:14.110Z,15.55
2023-04-16T12:45:41.657Z,15.53
2023-04-16T12:48:08.750Z,15.33
2023-04-16T12:50:39.814Z,15.24
2023-04-16T12:53:06.870Z,15.14
2023-04-16T12:55:33.738Z,15.30
2023-04-16T12:58:01.045Z,15.32
2023-04-16T13:00:27.981Z,15.21
2023-04-16T13:02:54.910Z,15.23
2023-04-16T13:05:21.777Z,15.33
2023-04-16T13:07:48.609Z,15.39
2023-04-16T13:10:15.585Z,15.22
2023-04-16T13:12:42.443Z,15.22
2023-04-16T13:15:10.266Z,15.25
2023-04-16T13:17:37.627Z,14.90
2023-04-16T13:20:04.957Z,14.67
2023-04-16T13:22:32.383Z,14.69
2023-04-16T13:24:59.277Z,14.70
2023-04-16T13:27:26.309Z,14.74
2023-04-16T13:29:53.223Z,14.69
2023-04-16T13:32:20.450Z,14.57
2023-04-16T13:34:47.951Z,14.45
2023-04-16T13:37:14.830Z,14.42
2023-04-16T13:39:42.691Z,14.55
2023-04-16T13:42:12.426Z,14.69
2023-04-16T13:44:39.282Z,14.77
2023-04-16T13:47:06.335Z,14.78
2023-04-16T13:49:36.149Z,14.76
2023-04-16T13:52:03.328Z,14.79
2023-04-16T13:54:32.023Z,14.76
2023-04-16T13:56:58.900Z,14.79
2023-04-16T13:59:26.624Z,14.89
2023-04-16T14:01:53.500Z,14.89
2023-04-16T14:04:22.520Z,14.84
2023-04-16T14:06:51.012Z,14.65
2023-04-16T14:09:17.992Z,14.64
2023-04-16T14:11:44.902Z,14.76
2023-04-16T14:14:12.429Z,14.73
2023-04-16T14:16:39.943Z,14.61
2023-04-16T14:19:06.747Z,14.64
2023-04-16T14:21:33.739Z,14.77
2023-04-16T14:24:00.725Z,14.82
2023-04-16T14:26:27.772Z,14.93
2023-04-16T14:28:54.908Z,14.89
2023-04-16T14:31:21.855Z,14.86
2023-04-16T14:33:49.066Z,14.96
2023-04-16T14:36:17.607Z,14.99
2023-04-16T14:38:44.605Z,15.03
2023-04-16T14:41:15.805Z,15.01
2023-04-16T14:43:44.394Z,15.00
2023-04-16T14:46:17.819Z,15.01
2023-04-16T14:48:45.886Z,14.91
2023-04-16T14:51:12.993Z,14.99
2023-04-16T14:53:40.963Z,15.13
2023-04-16T14:56:09.392Z,15.26
2023-04-16T14:58:39.084Z,15.38
2023-04-16T15:01:06.231Z,15.22
2023-04-16T15:03:33.556Z,15.08
2023-04-16T15:06:00.721Z,15.05
2023-04-16T15:08:28.014Z,15.14
2023-04-16T15:10:55.055Z,15.21
2023-04-16T15:13:22.801Z,14.98
2023-04-16T15:15:50.167Z,14.94
2023-04-16T15:18:18.994Z,15.01
2023-04-16T15:20:45.768Z,14.89
2023-04-16T15:23:12.630Z,14.95
2023-04-16T15:25:39.457Z,15.00
2023-04-16T15:28:06.710Z,14.90
2023-04-16T15:30:33.745Z,14.82
2023-04-16T15:33:00.866Z,14.80
2023-04-16T15:35:27.778Z,14.70
2023-04-16T15:37:57.471Z,14.63
2023-04-16T15:40:26.982Z,14.61
2023-04-16T15:42:55.239Z,14.51
2023-04-16T15:45:22.586Z,14.55
2023-04-16T15:47:51.493Z,14.55
2023-04-16T15:50:20.766Z,14.51
2023-04-16T15:52:49.482Z,14.44
2023-04-16T15:55:18.541Z,14.32
2023-04-16T15:57:46.845Z,14.34
2023-04-16T16:00:15.639Z,14.33
2023-04-16T16:02:44.205Z,14.27
2023-04-16T16:05:13.798Z,14.26
2023-04-16T16:07:44.619Z,14.11
2023-04-16T16:10:13.274Z,14.11
2023-04-16T16:12:41.589Z,13.99
2023-04-16T16:15:11.068Z,13.94
2023-04-16T16:17:38.725Z,13.93
2023-04-16T16:20:11.312Z,13.95
2023-04-16T16:22:38.824Z,13.90
2023-04-16T16:25:08.494Z,13.88
2023-04-16T16:27:36.548Z,13.90
2023-04-16T16:30:06.641Z,13.92
2023-04-16T16:32:34.175Z,13.92
2023-04-16T16:35:01.100Z,13.86
2023-04-16T16:37:29.447Z,13.70
2023-04-16T16:39:56.498Z,13.61
2023-04-16T16:42:23.339Z,13.61
2023-04-16T16:44:50.688Z,13.52
2023-04-16T16:47:17.869Z,13.47
2023-04-16T16:49:46.430Z,13.43
2023-04-16T16:52:13.315Z,13.43
2023-04-16T16:54:40.823Z,13.39
2023-04-16T16:57:08.428Z,13.38
2023-04-16T16:59:35.310Z,13.30
2023-04-16T17:02:02.660Z,13.25
2023-04-16T17:04:29.615Z,13.22
2023-04-16T17:06:56.709Z,13.21
2023-04-16T17:09:23.548Z,13.13
2023-04-16T17:11:50.423Z,13.06
2023-04-16T17:14:17.351Z,13.01
2023-04-16T17:16:49.975Z,12.98
2023-04-16T17:19:17.981Z,12.89
2023-04-16T17:21:44.956Z,12.92
2023-04-16T17:24:11.966Z,12.83
2023-04-16T17:26:40.974Z,12.82
2023-04-16T17:29:07.977Z,12.81
2023-04-16T17:31:34.834Z,12.84
2023-04-16T17:34:05.841Z,12.82
2023-04-16T17:36:32.814Z,12.79
2023-04-16T17:39:00.769Z,12.79
2023-04-16T17:41:27.577Z,12.77
2023-04-16T17:43:58.209Z,12.77
2023-04-16T17:46:25.060Z,12.79
2023-04-16T17:48:51.954Z,12.80
2023-04-16T17:51:18.850Z,12.79
2023-04-16T17:53:46.297Z,12.79
2023-04-16T17:56:14.023Z,12.75
2023-04-16T17:58:41.007Z,12.76
2023-04-16T18:01:07.880Z,12.77
2023-04-16T18:03:35.130Z,12.83
2023-04-16T18:06:02.107Z,12.83
2023-04-16T18:08:29.023Z,12.75
2023-04-16T18:10:57.180Z,12.76
2023-04-16T18:13:24.784Z,12.74
2023-04-16T18:15:53.006Z,12.75
2023-04-16T18:18:21.330Z,12.76
2023-04-16T18:20:49.244Z,12.72
2023-04-16T18:23:16.150Z,12.73
2023-04-16T18:25:43.211Z,12.70
2023-04-16T18:28:13.678Z,12.68
2023-04-16T18:30:41.171Z,12.64
2023-04-16T18:33:42.833Z,12.65
2023-04-16T18:36:04.713Z,12.60
2023-04-16T18:38:31.639Z,12.61
2023-04-16T18:40:58.997Z,12.60
2023-04-16T18:43:26.213Z,12.62
2023-04-16T18:45:53.571Z,12.61
2023-04-16T18:48:20.533Z,12.60
2023-04-16T18:50:50.418Z,12.60
2023-04-16T18:53:18.681Z,12.56
2023-04-16T18:55:51.035Z,12.54
2023-04-16T18:58:21.479Z,12.53
2023-04-16T19:00:54.675Z,12.48
2023-04-16T19:03:22.651Z,12.26
2023-04-16T19:05:49.505Z,12.37
2023-04-16T19:08:16.288Z,12.38
2023-04-16T19:10:45.754Z,12.39
2023-04-16T19:16:09.532Z,12.37
2023-04-16T19:18:42.291Z,12.33
2023-04-16T19:21:14.286Z,12.32
2023-04-16T19:23:43.797Z,12.27
2023-04-16T19:26:16.489Z,12.17
2023-04-16T19:28:49.969Z,12.14
2023-04-16T19:31:20.562Z,12.09
2023-04-16T19:33:47.541Z,12.08
2023-04-16T19:36:14.450Z,12.07
2023-04-16T19:38:41.242Z,12.05
2023-04-16T19:41:10.352Z,12.02
2023-04-16T19:43:39.408Z,11.99
2023-04-16T19:46:07.827Z,11.96
2023-04-16T19:48:37.211Z,11.89
2023-04-16T19:51:07.187Z,11.86
2023-04-16T19:53:35.903Z,11.83
2023-04-16T19:56:02.803Z,11.84
2023-04-16T19:58:37.867Z,11.80
2023-04-16T20:01:10.557Z,11.77
2023-04-16T20:03:40.553Z,11.79
2023-04-16T20:06:09.738Z,11.80
2023-04-16T20:08:40.846Z,11.82
2023-04-16T20:11:12.177Z,11.83
2023-04-16T20:13:39.201Z,11.81
2023-04-16T20:16:08.569Z,11.82
2023-04-16T20:18:41.320Z,11.81
2023-04-16T20:21:09.435Z,11.78
2023-04-16T20:23:41.619Z,11.79
2023-04-16T20:26:13.444Z,11.78
2023-04-16T20:28:40.265Z,11.79
2023-04-16T20:31:07.251Z,11.78
2023-04-16T20:33:34.064Z,11.71
2023-04-16T20:36:01.785Z,11.63
2023-04-16T20:38:32.577Z,11.70
2023-04-16T20:41:20.411Z,11.71
2023-04-16T20:43:50.102Z,11.68
2023-04-16T20:46:17.798Z,11.69
2023-04-16T20:48:45.311Z,11.63
2023-04-16T20:51:16.421Z,11.63
2023-04-16T20:53:45.857Z,11.67
2023-04-16T20:56:14.990Z,11.71
2023-04-16T20:58:44.631Z,11.71
2023-04-16T21:01:14.531Z,11.70
2023-04-16T21:03:52.176Z,11.60
2023-04-16T21:06:22.565Z,11.62
2023-04-16T21:08:49.444Z,11.66
2023-04-16T21:11:16.484Z,11.51
2023-04-16T21:13:43.304Z,11.44
2023-04-16T21:16:14.253Z,11.44
2023-04-16T21:18:41.730Z,11.40
2023-04-16T21:21:10.974Z,11.39
2023-04-16T21:23:37.821Z,11.32
2023-04-16T21:26:04.610Z,11.24
2023-04-16T21:28:31.430Z,11.27
2023-04-16T21:31:00.892Z,11.23
2023-04-16T21:33:27.744Z,11.19
2023-04-16T21:35:54.654Z,11.16
2023-04-16T21:38:22.230Z,11.15
2023-04-16T21:40:51.298Z,11.11
2023-04-16T21:43:18.365Z,11.07
2023-04-16T21:45:45.396Z,11.05
2023-04-16T21:48:12.630Z,11.06
2023-04-16T21:50:40.090Z,11.04
2023-04-16T21:53:06.983Z,10.99
2023-04-16T21:55:34.930Z,10.95
2023-04-16T21:58:03.090Z,10.95
2023-04-16T22:00:30.044Z,10.90
2023-04-16T22:03:00.149Z,10.83
2023-04-16T22:05:27.343Z,10.81
2023-04-16T22:07:54.254Z,10.81
2023-04-16T22:10:21.702Z,10.78
2023-04-16T22:12:48.595Z,10.81
2023-04-16T22:15:15.565Z,10.76
2023-04-16T22:17:42.488Z,10.83
2023-04-16T22:20:12.300Z,10.73
2023-04-16T22:22:39.931Z,10.69
2023-04-16T22:25:07.188Z,10.67
2023-04-16T22:27:34.485Z,10.66
2023-04-16T22:30:01.855Z,10.66
2023-04-16T22:32:33.287Z,10.63
2023-04-16T22:35:00.787Z,10.61
2023-04-16T22:37:28.105Z,10.63
2023-04-16T22:39:55.008Z,10.60
2023-04-16T22:42:21.873Z,10.59
2023-04-16T22:44:48.771Z,10.58
2023-04-16T22:47:15.692Z,10.56
2023-04-16T22:49:42.923Z,10.56
2023-04-16T22:52:09.713Z,10.56
2023-04-16T22:54:36.520Z,10.53
2023-04-16T22:57:03.318Z,10.51
2023-04-16T22:59:31.122Z,10.52
2023-04-16T23:01:58.213Z,10.49
2023-04-16T23:04:25.726Z,10.50
2023-04-16T23:06:52.555Z,10.46
2023-04-16T23:09:20.587Z,10.47
2023-04-16T23:11:47.391Z,10.47
2023-04-16T23:14:16.733Z,10.48
2023-04-16T23:16:44.127Z,10.47
2023-04-16T23:19:14.953Z,10.53
2023-04-16T23:21:42.615Z,10.50
2023-04-16T23:24:09.812Z,10.61
2023-04-16T23:26:37.213Z,10.59
2023-04-16T23:29:04.358Z,10.62
2023-04-16T23:31:31.340Z,10.61
2023-04-16T23:33:58.877Z,10.59
2023-04-16T23:36:27.539Z,10.57
2023-04-16T23:38:54.508Z,10.54
2023-04-16T23:41:23.693Z,10.53
2023-04-16T23:43:50.752Z,10.58
2023-04-16T23:46:17.644Z,10.53
2023-04-16T23:48:44.781Z,10.55
2023-04-16T23:51:11.692Z,10.57
2023-04-16T23:53:40.735Z,10.51
2023-04-16T23:56:11.165Z,10.50
2023-04-16T23:58:38.369Z,10.49
